Shearwater — 3ESK5 — position and weather

sailwx.info

Track history (hours):
 
Tides and Currents Weather Stations Pressure Air Temp Water Temp Dewpoint Dewpoint Depression Visibility Wind Speed Wind Dir Waves Ship Positions

Shearwater

Last reported at 2016-May-20 07:33 UTC. Time now 2016-May-27 06:36 UTC.
Position N 01°55' E 102°20'.

Length 210 m; draft 7 m.

Type: Cargo ship. MMSI: 370338000.

Date/timePositionNaut miles runAvg speedWind from/ knotsBaromVisibWave heightAir tempDewpointWater temp
2016-May-20 07:33N 01°55' E 102°20'1413.8
2016-May-20 06:33N 01°49' E 102°32'1413.4
2016-May-20 05:31N 01°44' E 102°45'5811.8
2016-May-20 00:33N 01°12' E 103°34'1211.8
2016-May-19 23:33N 01°09' E 103°46'1211.8
2016-May-19 22:33N 01°14' E 103°56'6 5.0
2016-May-19 21:24N 01°17' E 104°01'0 0.0
2016-May-19 20:30N 01°17' E 104°01'0 0.0
2016-May-19 19:31N 01°18' E 104°01'0 0.0
2016-May-19 18:25N 01°18' E 104°01'0 0.0
2016-May-19 17:27N 01°18' E 104°01'0 0.1
2016-May-19 16:19N 01°18' E 104°01'0 0.1
2016-May-19 14:12N 01°17' E 104°01'0 0.0
2016-May-19 13:31N 01°17' E 104°01'0 0.1
2016-May-19 12:19N 01°17' E 104°01'0 0.2
2016-May-19 11:33N 01°18' E 104°01'4 3.9
2016-May-19 10:33N 01°16' E 103°58'6 6.0
2016-May-19 09:33N 01°16' E 104°04'7 7.3
2016-May-19 08:33N 01°17' E 104°11'  
Track history (hours):
 
Tides and Currents Weather Stations Pressure Air Temp Water Temp Dewpoint Dewpoint Depression Visibility Wind Speed Wind Dir Waves Ship Positions

Shearwater

Last reported at 2016-May-20 07:33 UTC. Time now 2016-May-27 06:36 UTC.
Position N 01°55' E 102°20'.

Length 210 m; draft 7 m.

Type: Cargo ship. MMSI: 370338000.

Date/timePositionNaut miles runAvg speedWind from/ knotsBaromVisibWave heightAir tempDewpointWater temp
2016-May-20 07:33N 01°55' E 102°20'1413.8
2016-May-20 06:33N 01°49' E 102°32'1413.4
2016-May-20 05:31N 01°44' E 102°45'5811.8
2016-May-20 00:33N 01°12' E 103°34'1211.8
2016-May-19 23:33N 01°09' E 103°46'1211.8
2016-May-19 22:33N 01°14' E 103°56'6 5.0
2016-May-19 21:24N 01°17' E 104°01'0 0.0
2016-May-19 20:30N 01°17' E 104°01'0 0.0
2016-May-19 19:31N 01°18' E 104°01'0 0.0
2016-May-19 18:25N 01°18' E 104°01'0 0.0
2016-May-19 17:27N 01°18' E 104°01'0 0.1
2016-May-19 16:19N 01°18' E 104°01'0 0.1
2016-May-19 14:12N 01°17' E 104°01'0 0.0
2016-May-19 13:31N 01°17' E 104°01'0 0.1
2016-May-19 12:19N 01°17' E 104°01'0 0.2
2016-May-19 11:33N 01°18' E 104°01'4 3.9
2016-May-19 10:33N 01°16' E 103°58'6 6.0
2016-May-19 09:33N 01°16' E 104°04'7 7.3
2016-May-19 08:33N 01°17' E 104°11'  

Dump ship's entire track history